sensor_id;sensor_type;location;lat;lon;timestamp;P1;durP1;ratioP1;P2;durP2;ratioP2
11964;SDS011;6042;41.326;19.826;2023-12-04T00:00:03;7.30;;;2.47;;
11964;SDS011;6042;41.326;19.826;2023-12-04T00:02:40;6.23;;;1.93;;
11964;SDS011;6042;41.326;19.826;2023-12-04T00:05:10;8.43;;;1.97;;
11964;SDS011;6042;41.326;19.826;2023-12-04T00:07:39;6.93;;;2.17;;
11964;SDS011;6042;41.326;19.826;2023-12-04T00:10:08;4.33;;;1.60;;
11964;SDS011;6042;41.326;19.826;2023-12-04T00:12:36;7.60;;;1.63;;
11964;SDS011;6042;41.326;19.826;2023-12-04T00:15:06;6.63;;;2.10;;
11964;SDS011;6042;41.326;19.826;2023-12-04T00:17:35;6.77;;;1.97;;
11964;SDS011;6042;41.326;19.826;2023-12-04T00:20:07;7.17;;;2.07;;
11964;SDS011;6042;41.326;19.826;2023-12-04T00:22:38;6.17;;;1.80;;
11964;SDS011;6042;41.326;19.826;2023-12-04T00:25:07;8.47;;;2.10;;
11964;SDS011;6042;41.326;19.826;2023-12-04T00:27:36;7.33;;;2.03;;
11964;SDS011;6042;41.326;19.826;2023-12-04T00:30:05;15.00;;;2.97;;
11964;SDS011;6042;41.326;19.826;2023-12-04T00:32:34;6.73;;;2.20;;
11964;SDS011;6042;41.326;19.826;2023-12-04T00:35:03;7.30;;;1.63;;
11964;SDS011;6042;41.326;19.826;2023-12-04T00:37:33;5.27;;;2.03;;
11964;SDS011;6042;41.326;19.826;2023-12-04T00:40:05;5.67;;;1.83;;
11964;SDS011;6042;41.326;19.826;2023-12-04T00:42:35;9.10;;;2.00;;
11964;SDS011;6042;41.326;19.826;2023-12-04T00:45:04;5.27;;;2.10;;
11964;SDS011;6042;41.326;19.826;2023-12-04T00:47:33;6.50;;;2.37;;
11964;SDS011;6042;41.326;19.826;2023-12-04T00:50:02;4.97;;;1.47;;
11964;SDS011;6042;41.326;19.826;2023-12-04T00:52:35;6.07;;;2.10;;
11964;SDS011;6042;41.326;19.826;2023-12-04T00:55:04;9.77;;;2.20;;
11964;SDS011;6042;41.326;19.826;2023-12-04T00:57:33;4.30;;;1.97;;
11964;SDS011;6042;41.326;19.826;2023-12-04T01:00:02;4.17;;;1.90;;
11964;SDS011;6042;41.326;19.826;2023-12-04T01:02:31;6.87;;;2.10;;
11964;SDS011;6042;41.326;19.826;2023-12-04T01:05:00;6.90;;;1.97;;
11964;SDS011;6042;41.326;19.826;2023-12-04T01:07:28;6.97;;;1.87;;
11964;SDS011;6042;41.326;19.826;2023-12-04T01:09:58;4.40;;;1.67;;
11964;SDS011;6042;41.326;19.826;2023-12-04T01:12:27;5.40;;;1.73;;
11964;SDS011;6042;41.326;19.826;2023-12-04T01:14:56;2.80;;;1.80;;
11964;SDS011;6042;41.326;19.826;2023-12-04T01:17:25;3.80;;;2.30;;
11964;SDS011;6042;41.326;19.826;2023-12-04T01:19:54;3.47;;;2.47;;
11964;SDS011;6042;41.326;19.826;2023-12-04T01:22:24;10.83;;;2.07;;
11964;SDS011;6042;41.326;19.826;2023-12-04T01:24:54;2.77;;;1.70;;
11964;SDS011;6042;41.326;19.826;2023-12-04T01:27:24;3.60;;;1.70;;
11964;SDS011;6042;41.326;19.826;2023-12-04T01:29:52;10.13;;;2.17;;
11964;SDS011;6042;41.326;19.826;2023-12-04T01:32:21;3.40;;;1.47;;
11964;SDS011;6042;41.326;19.826;2023-12-04T01:34:52;3.07;;;1.63;;
11964;SDS011;6042;41.326;19.826;2023-12-04T01:37:21;4.37;;;1.80;;
11964;SDS011;6042;41.326;19.826;2023-12-04T01:39:50;5.00;;;1.23;;
11964;SDS011;6042;41.326;19.826;2023-12-04T01:42:19;3.80;;;1.37;;
11964;SDS011;6042;41.326;19.826;2023-12-04T01:44:49;5.00;;;1.60;;
11964;SDS011;6042;41.326;19.826;2023-12-04T01:47:18;6.67;;;1.80;;
11964;SDS011;6042;41.326;19.826;2023-12-04T01:49:47;4.93;;;1.30;;
11964;SDS011;6042;41.326;19.826;2023-12-04T01:52:16;6.47;;;1.70;;
11964;SDS011;6042;41.326;19.826;2023-12-04T01:54:45;6.43;;;2.03;;
11964;SDS011;6042;41.326;19.826;2023-12-04T01:57:14;3.77;;;1.77;;
11964;SDS011;6042;41.326;19.826;2023-12-04T01:59:42;4.97;;;1.70;;
11964;SDS011;6042;41.326;19.826;2023-12-04T02:02:13;6.43;;;1.27;;
11964;SDS011;6042;41.326;19.826;2023-12-04T02:04:42;4.40;;;1.50;;
11964;SDS011;6042;41.326;19.826;2023-12-04T02:07:11;7.10;;;2.00;;
11964;SDS011;6042;41.326;19.826;2023-12-04T02:09:40;6.87;;;1.80;;
11964;SDS011;6042;41.326;19.826;2023-12-04T02:12:09;4.20;;;1.80;;
11964;SDS011;6042;41.326;19.826;2023-12-04T02:14:37;6.63;;;1.77;;
11964;SDS011;6042;41.326;19.826;2023-12-04T02:17:06;3.63;;;1.70;;
11964;SDS011;6042;41.326;19.826;2023-12-04T02:19:38;9.83;;;2.07;;
11964;SDS011;6042;41.326;19.826;2023-12-04T02:22:06;3.43;;;1.40;;
11964;SDS011;6042;41.326;19.826;2023-12-04T02:24:36;3.37;;;1.30;;
11964;SDS011;6042;41.326;19.826;2023-12-04T02:27:07;5.83;;;1.70;;
11964;SDS011;6042;41.326;19.826;2023-12-04T02:29:41;6.50;;;1.60;;
11964;SDS011;6042;41.326;19.826;2023-12-04T02:32:14;5.60;;;1.50;;
11964;SDS011;6042;41.326;19.826;2023-12-04T02:34:45;5.70;;;1.77;;
11964;SDS011;6042;41.326;19.826;2023-12-04T02:37:18;5.47;;;1.70;;
11964;SDS011;6042;41.326;19.826;2023-12-04T02:39:50;5.27;;;1.63;;
11964;SDS011;6042;41.326;19.826;2023-12-04T02:42:22;4.17;;;1.60;;
11964;SDS011;6042;41.326;19.826;2023-12-04T02:44:53;5.07;;;1.40;;
11964;SDS011;6042;41.326;19.826;2023-12-04T02:47:21;3.23;;;1.30;;
11964;SDS011;6042;41.326;19.826;2023-12-04T02:49:50;6.73;;;1.40;;
11964;SDS011;6042;41.326;19.826;2023-12-04T02:52:19;4.03;;;1.33;;
11964;SDS011;6042;41.326;19.826;2023-12-04T02:54:49;4.97;;;1.20;;
11964;SDS011;6042;41.326;19.826;2023-12-04T02:57:18;5.83;;;1.70;;
11964;SDS011;6042;41.326;19.826;2023-12-04T02:59:50;4.43;;;1.20;;
11964;SDS011;6042;41.326;19.826;2023-12-04T03:02:18;4.03;;;1.53;;
11964;SDS011;6042;41.326;19.826;2023-12-04T03:04:47;4.83;;;1.63;;
11964;SDS011;6042;41.326;19.826;2023-12-04T03:07:15;5.20;;;1.73;;
11964;SDS011;6042;41.326;19.826;2023-12-04T03:09:46;3.87;;;2.07;;
11964;SDS011;6042;41.326;19.826;2023-12-04T03:12:17;2.73;;;1.23;;
11964;SDS011;6042;41.326;19.826;2023-12-04T03:14:45;7.30;;;1.57;;
11964;SDS011;6042;41.326;19.826;2023-12-04T03:17:14;6.60;;;1.50;;
11964;SDS011;6042;41.326;19.826;2023-12-04T03:19:42;4.20;;;1.53;;
11964;SDS011;6042;41.326;19.826;2023-12-04T03:22:11;2.83;;;1.80;;
11964;SDS011;6042;41.326;19.826;2023-12-04T03:24:43;5.93;;;1.90;;
11964;SDS011;6042;41.326;19.826;2023-12-04T03:27:14;6.53;;;1.70;;
11964;SDS011;6042;41.326;19.826;2023-12-04T03:29:45;4.23;;;1.60;;
11964;SDS011;6042;41.326;19.826;2023-12-04T03:32:13;4.13;;;1.50;;
11964;SDS011;6042;41.326;19.826;2023-12-04T03:34:42;4.50;;;1.50;;
11964;SDS011;6042;41.326;19.826;2023-12-04T03:37:12;4.13;;;1.63;;
11964;SDS011;6042;41.326;19.826;2023-12-04T03:39:41;6.20;;;1.63;;
11964;SDS011;6042;41.326;19.826;2023-12-04T03:42:09;6.50;;;2.13;;
11964;SDS011;6042;41.326;19.826;2023-12-04T03:44:39;4.47;;;1.90;;
11964;SDS011;6042;41.326;19.826;2023-12-04T03:47:08;3.57;;;1.60;;
11964;SDS011;6042;41.326;19.826;2023-12-04T03:49:37;5.03;;;1.77;;
11964;SDS011;6042;41.326;19.826;2023-12-04T03:52:05;3.57;;;1.63;;
11964;SDS011;6042;41.326;19.826;2023-12-04T03:54:34;3.83;;;1.47;;
11964;SDS011;6042;41.326;19.826;2023-12-04T03:57:03;4.30;;;1.63;;
11964;SDS011;6042;41.326;19.826;2023-12-04T03:59:32;4.67;;;1.87;;
11964;SDS011;6042;41.326;19.826;2023-12-04T04:02:02;2.77;;;1.30;;
11964;SDS011;6042;41.326;19.826;2023-12-04T04:04:31;5.33;;;1.43;;
11964;SDS011;6042;41.326;19.826;2023-12-04T04:07:01;4.87;;;1.80;;
11964;SDS011;6042;41.326;19.826;2023-12-04T04:09:31;2.93;;;1.37;;
11964;SDS011;6042;41.326;19.826;2023-12-04T04:11:59;7.90;;;1.50;;
11964;SDS011;6042;41.326;19.826;2023-12-04T04:14:28;4.73;;;1.50;;
11964;SDS011;6042;41.326;19.826;2023-12-04T04:16:57;5.97;;;1.27;;
11964;SDS011;6042;41.326;19.826;2023-12-04T04:19:27;4.67;;;1.43;;
11964;SDS011;6042;41.326;19.826;2023-12-04T04:21:56;2.60;;;1.40;;
11964;SDS011;6042;41.326;19.826;2023-12-04T04:24:24;2.70;;;1.20;;
11964;SDS011;6042;41.326;19.826;2023-12-04T04:26:53;5.27;;;1.50;;
11964;SDS011;6042;41.326;19.826;2023-12-04T04:29:21;4.10;;;1.67;;
11964;SDS011;6042;41.326;19.826;2023-12-04T04:31:50;3.80;;;1.30;;
11964;SDS011;6042;41.326;19.826;2023-12-04T04:34:19;3.90;;;1.43;;
11964;SDS011;6042;41.326;19.826;2023-12-04T04:36:50;8.13;;;1.80;;
11964;SDS011;6042;41.326;19.826;2023-12-04T04:39:19;3.43;;;1.43;;
11964;SDS011;6042;41.326;19.826;2023-12-04T04:41:48;5.77;;;1.57;;
11964;SDS011;6042;41.326;19.826;2023-12-04T04:44:16;6.90;;;2.00;;
11964;SDS011;6042;41.326;19.826;2023-12-04T04:46:45;5.97;;;1.50;;
11964;SDS011;6042;41.326;19.826;2023-12-04T04:49:13;6.97;;;1.47;;
11964;SDS011;6042;41.326;19.826;2023-12-04T04:51:43;3.03;;;1.40;;
11964;SDS011;6042;41.326;19.826;2023-12-04T04:54:15;5.60;;;1.63;;
11964;SDS011;6042;41.326;19.826;2023-12-04T04:56:44;5.47;;;1.80;;
11964;SDS011;6042;41.326;19.826;2023-12-04T04:59:13;5.87;;;1.90;;
11964;SDS011;6042;41.326;19.826;2023-12-04T05:01:45;4.73;;;1.20;;
11964;SDS011;6042;41.326;19.826;2023-12-04T05:04:14;5.37;;;2.03;;
11964;SDS011;6042;41.326;19.826;2023-12-04T05:06:43;3.63;;;1.40;;
11964;SDS011;6042;41.326;19.826;2023-12-04T05:09:11;4.60;;;1.70;;
11964;SDS011;6042;41.326;19.826;2023-12-04T05:11:41;3.17;;;1.30;;
11964;SDS011;6042;41.326;19.826;2023-12-04T05:14:10;2.93;;;1.60;;
11964;SDS011;6042;41.326;19.826;2023-12-04T05:16:38;6.53;;;1.93;;
11964;SDS011;6042;41.326;19.826;2023-12-04T05:19:07;2.93;;;1.47;;
11964;SDS011;6042;41.326;19.826;2023-12-04T05:21:36;3.67;;;1.70;;
11964;SDS011;6042;41.326;19.826;2023-12-04T05:24:04;7.43;;;1.83;;
11964;SDS011;6042;41.326;19.826;2023-12-04T05:26:34;4.07;;;1.53;;
11964;SDS011;6042;41.326;19.826;2023-12-04T05:29:04;1.87;;;1.23;;
11964;SDS011;6042;41.326;19.826;2023-12-04T05:31:32;5.67;;;2.03;;
11964;SDS011;6042;41.326;19.826;2023-12-04T05:34:01;5.53;;;1.73;;
11964;SDS011;6042;41.326;19.826;2023-12-04T05:36:30;5.97;;;1.50;;
11964;SDS011;6042;41.326;19.826;2023-12-04T05:38:58;3.23;;;1.30;;
11964;SDS011;6042;41.326;19.826;2023-12-04T05:41:29;3.67;;;1.70;;
11964;SDS011;6042;41.326;19.826;2023-12-04T05:43:58;6.50;;;1.57;;
11964;SDS011;6042;41.326;19.826;2023-12-04T05:46:28;7.73;;;1.60;;
11964;SDS011;6042;41.326;19.826;2023-12-04T05:48:58;6.23;;;1.60;;
11964;SDS011;6042;41.326;19.826;2023-12-04T05:51:27;2.83;;;1.50;;
11964;SDS011;6042;41.326;19.826;2023-12-04T05:54:00;6.70;;;2.03;;
11964;SDS011;6042;41.326;19.826;2023-12-04T05:56:28;5.47;;;2.10;;
11964;SDS011;6042;41.326;19.826;2023-12-04T05:58:58;5.20;;;1.57;;
11964;SDS011;6042;41.326;19.826;2023-12-04T06:01:28;3.93;;;1.63;;
11964;SDS011;6042;41.326;19.826;2023-12-04T06:03:57;5.20;;;1.60;;
11964;SDS011;6042;41.326;19.826;2023-12-04T06:06:26;6.37;;;1.50;;
11964;SDS011;6042;41.326;19.826;2023-12-04T06:08:54;8.07;;;1.87;;
11964;SDS011;6042;41.326;19.826;2023-12-04T06:11:23;7.13;;;1.40;;
11964;SDS011;6042;41.326;19.826;2023-12-04T06:13:52;7.63;;;1.87;;
11964;SDS011;6042;41.326;19.826;2023-12-04T06:16:20;6.70;;;1.73;;
11964;SDS011;6042;41.326;19.826;2023-12-04T06:18:50;2.80;;;1.50;;
11964;SDS011;6042;41.326;19.826;2023-12-04T06:21:21;4.17;;;2.63;;
11964;SDS011;6042;41.326;19.826;2023-12-04T06:23:50;3.40;;;1.60;;
11964;SDS011;6042;41.326;19.826;2023-12-04T06:26:19;5.83;;;1.77;;
11964;SDS011;6042;41.326;19.826;2023-12-04T06:28:48;4.90;;;1.90;;
11964;SDS011;6042;41.326;19.826;2023-12-04T06:31:17;6.60;;;2.63;;
11964;SDS011;6042;41.326;19.826;2023-12-04T06:33:46;7.83;;;1.90;;
11964;SDS011;6042;41.326;19.826;2023-12-04T06:36:17;6.73;;;2.13;;
11964;SDS011;6042;41.326;19.826;2023-12-04T06:38:47;7.20;;;2.80;;
11964;SDS011;6042;41.326;19.826;2023-12-04T06:41:20;5.30;;;1.50;;
11964;SDS011;6042;41.326;19.826;2023-12-04T06:43:50;7.57;;;2.60;;
11964;SDS011;6042;41.326;19.826;2023-12-04T06:46:19;7.93;;;2.70;;
11964;SDS011;6042;41.326;19.826;2023-12-04T06:48:50;6.13;;;2.67;;
11964;SDS011;6042;41.326;19.826;2023-12-04T06:51:24;10.67;;;4.40;;
11964;SDS011;6042;41.326;19.826;2023-12-04T06:53:55;8.47;;;2.87;;
11964;SDS011;6042;41.326;19.826;2023-12-04T06:56:24;8.77;;;3.10;;
11964;SDS011;6042;41.326;19.826;2023-12-04T06:58:52;6.90;;;2.50;;
11964;SDS011;6042;41.326;19.826;2023-12-04T07:01:22;8.93;;;2.13;;
11964;SDS011;6042;41.326;19.826;2023-12-04T07:03:51;8.80;;;2.20;;
11964;SDS011;6042;41.326;19.826;2023-12-04T07:06:20;5.53;;;1.90;;
11964;SDS011;6042;41.326;19.826;2023-12-04T07:08:50;8.00;;;2.23;;
11964;SDS011;6042;41.326;19.826;2023-12-04T07:11:19;8.53;;;2.33;;
11964;SDS011;6042;41.326;19.826;2023-12-04T07:13:47;6.40;;;2.00;;
11964;SDS011;6042;41.326;19.826;2023-12-04T07:16:16;5.93;;;2.23;;
11964;SDS011;6042;41.326;19.826;2023-12-04T07:18:45;5.57;;;2.40;;
11964;SDS011;6042;41.326;19.826;2023-12-04T07:21:14;11.33;;;2.90;;
11964;SDS011;6042;41.326;19.826;2023-12-04T07:23:44;8.07;;;2.37;;
11964;SDS011;6042;41.326;19.826;2023-12-04T07:26:17;12.27;;;2.70;;
11964;SDS011;6042;41.326;19.826;2023-12-04T07:28:51;7.23;;;2.83;;
11964;SDS011;6042;41.326;19.826;2023-12-04T07:31:31;9.80;;;2.80;;
11964;SDS011;6042;41.326;19.826;2023-12-04T07:34:04;8.40;;;2.30;;
11964;SDS011;6042;41.326;19.826;2023-12-04T07:36:32;5.00;;;1.83;;
11964;SDS011;6042;41.326;19.826;2023-12-04T07:39:03;10.83;;;3.00;;
11964;SDS011;6042;41.326;19.826;2023-12-04T07:41:40;9.03;;;2.90;;
11964;SDS011;6042;41.326;19.826;2023-12-04T07:44:10;9.93;;;3.23;;
11964;SDS011;6042;41.326;19.826;2023-12-04T07:46:39;7.33;;;2.20;;
11964;SDS011;6042;41.326;19.826;2023-12-04T07:49:08;9.00;;;2.93;;
11964;SDS011;6042;41.326;19.826;2023-12-04T07:51:36;15.37;;;3.17;;
11964;SDS011;6042;41.326;19.826;2023-12-04T07:54:05;9.80;;;3.40;;
11964;SDS011;6042;41.326;19.826;2023-12-04T07:56:34;8.47;;;2.80;;
11964;SDS011;6042;41.326;19.826;2023-12-04T07:59:04;7.57;;;2.20;;
11964;SDS011;6042;41.326;19.826;2023-12-04T08:14:47;21.57;;;6.23;;
11964;SDS011;6042;41.326;19.826;2023-12-04T08:17:15;7.03;;;3.47;;
11964;SDS011;6042;41.326;19.826;2023-12-04T08:19:42;9.10;;;2.97;;
11964;SDS011;6042;41.326;19.826;2023-12-04T08:22:10;8.53;;;3.27;;
11964;SDS011;6042;41.326;19.826;2023-12-04T08:24:38;10.57;;;3.03;;
11964;SDS011;6042;41.326;19.826;2023-12-04T08:27:06;5.23;;;2.43;;
11964;SDS011;6042;41.326;19.826;2023-12-04T08:29:33;9.03;;;3.57;;
11964;SDS011;6042;41.326;19.826;2023-12-04T08:32:02;8.27;;;2.90;;
11964;SDS011;6042;41.326;19.826;2023-12-04T08:34:29;17.47;;;4.17;;
11964;SDS011;6042;41.326;19.826;2023-12-04T08:36:57;9.07;;;3.10;;
11964;SDS011;6042;41.326;19.826;2023-12-04T08:39:24;8.20;;;2.60;;
11964;SDS011;6042;41.326;19.826;2023-12-04T08:41:52;12.67;;;2.53;;
11964;SDS011;6042;41.326;19.826;2023-12-04T08:44:29;4.60;;;1.90;;
11964;SDS011;6042;41.326;19.826;2023-12-04T08:46:56;9.63;;;2.53;;
11964;SDS011;6042;41.326;19.826;2023-12-04T08:49:24;5.17;;;3.00;;
11964;SDS011;6042;41.326;19.826;2023-12-04T08:52:05;7.53;;;2.53;;
11964;SDS011;6042;41.326;19.826;2023-12-04T08:54:33;10.23;;;4.87;;
11964;SDS011;6042;41.326;19.826;2023-12-04T08:57:00;7.57;;;3.27;;
11964;SDS011;6042;41.326;19.826;2023-12-04T08:59:30;9.30;;;2.60;;
11964;SDS011;6042;41.326;19.826;2023-12-04T09:01:58;6.40;;;3.17;;
11964;SDS011;6042;41.326;19.826;2023-12-04T09:04:26;7.47;;;3.67;;
11964;SDS011;6042;41.326;19.826;2023-12-04T09:06:54;13.47;;;4.37;;
11964;SDS011;6042;41.326;19.826;2023-12-04T09:09:24;13.80;;;4.90;;
11964;SDS011;6042;41.326;19.826;2023-12-04T09:11:52;14.43;;;5.10;;
11964;SDS011;6042;41.326;19.826;2023-12-04T09:14:20;12.77;;;6.43;;
11964;SDS011;6042;41.326;19.826;2023-12-04T09:16:47;17.80;;;6.63;;
11964;SDS011;6042;41.326;19.826;2023-12-04T09:19:14;11.53;;;6.00;;
11964;SDS011;6042;41.326;19.826;2023-12-04T09:21:42;11.47;;;7.17;;
11964;SDS011;6042;41.326;19.826;2023-12-04T09:24:10;15.40;;;7.10;;
11964;SDS011;6042;41.326;19.826;2023-12-04T09:26:39;24.20;;;7.27;;
11964;SDS011;6042;41.326;19.826;2023-12-04T09:29:07;19.40;;;8.60;;
11964;SDS011;6042;41.326;19.826;2023-12-04T09:31:36;17.50;;;8.23;;
11964;SDS011;6042;41.326;19.826;2023-12-04T09:34:04;25.87;;;9.07;;
11964;SDS011;6042;41.326;19.826;2023-12-04T09:36:32;15.67;;;7.90;;
11964;SDS011;6042;41.326;19.826;2023-12-04T09:39:00;15.10;;;8.57;;
11964;SDS011;6042;41.326;19.826;2023-12-04T09:41:27;17.27;;;8.33;;
11964;SDS011;6042;41.326;19.826;2023-12-04T09:43:54;18.87;;;8.77;;
11964;SDS011;6042;41.326;19.826;2023-12-04T09:46:22;16.23;;;8.07;;
11964;SDS011;6042;41.326;19.826;2023-12-04T09:48:49;17.40;;;8.77;;
11964;SDS011;6042;41.326;19.826;2023-12-04T09:51:19;17.27;;;9.63;;
11964;SDS011;6042;41.326;19.826;2023-12-04T09:53:48;17.97;;;9.90;;
11964;SDS011;6042;41.326;19.826;2023-12-04T09:56:17;16.30;;;8.87;;
11964;SDS011;6042;41.326;19.826;2023-12-04T09:58:44;28.20;;;9.57;;
11964;SDS011;6042;41.326;19.826;2023-12-04T10:01:15;20.87;;;9.87;;
11964;SDS011;6042;41.326;19.826;2023-12-04T10:03:42;18.73;;;9.10;;
11964;SDS011;6042;41.326;19.826;2023-12-04T10:06:10;15.23;;;7.87;;
11964;SDS011;6042;41.326;19.826;2023-12-04T10:08:43;15.33;;;7.43;;
11964;SDS011;6042;41.326;19.826;2023-12-04T10:11:12;12.03;;;7.23;;
11964;SDS011;6042;41.326;19.826;2023-12-04T10:13:40;16.37;;;7.83;;
11964;SDS011;6042;41.326;19.826;2023-12-04T10:16:32;16.67;;;8.30;;
11964;SDS011;6042;41.326;19.826;2023-12-04T10:19:16;18.93;;;8.30;;
11964;SDS011;6042;41.326;19.826;2023-12-04T10:21:47;19.67;;;8.30;;
11964;SDS011;6042;41.326;19.826;2023-12-04T10:24:26;18.10;;;7.80;;
11964;SDS011;6042;41.326;19.826;2023-12-04T10:26:55;15.10;;;7.63;;
11964;SDS011;6042;41.326;19.826;2023-12-04T10:29:23;21.73;;;8.30;;
11964;SDS011;6042;41.326;19.826;2023-12-04T10:31:53;17.60;;;8.80;;
11964;SDS011;6042;41.326;19.826;2023-12-04T10:34:21;16.63;;;8.63;;
11964;SDS011;6042;41.326;19.826;2023-12-04T10:36:52;17.63;;;8.87;;
11964;SDS011;6042;41.326;19.826;2023-12-04T10:39:19;19.20;;;9.87;;
11964;SDS011;6042;41.326;19.826;2023-12-04T10:41:58;17.83;;;8.67;;
11964;SDS011;6042;41.326;19.826;2023-12-04T10:44:28;22.03;;;9.27;;
11964;SDS011;6042;41.326;19.826;2023-12-04T10:46:57;22.40;;;8.70;;
11964;SDS011;6042;41.326;19.826;2023-12-04T10:49:27;15.50;;;9.77;;
11964;SDS011;6042;41.326;19.826;2023-12-04T10:51:55;24.40;;;10.07;;
11964;SDS011;6042;41.326;19.826;2023-12-04T10:54:25;18.07;;;9.50;;
11964;SDS011;6042;41.326;19.826;2023-12-04T10:56:55;26.50;;;10.60;;
11964;SDS011;6042;41.326;19.826;2023-12-04T10:59:30;21.83;;;10.83;;
11964;SDS011;6042;41.326;19.826;2023-12-04T11:02:03;20.10;;;12.70;;
11964;SDS011;6042;41.326;19.826;2023-12-04T11:04:34;17.63;;;10.57;;
11964;SDS011;6042;41.326;19.826;2023-12-04T11:07:03;18.23;;;9.27;;
11964;SDS011;6042;41.326;19.826;2023-12-04T11:09:33;19.53;;;10.07;;
11964;SDS011;6042;41.326;19.826;2023-12-04T11:12:03;16.40;;;9.77;;
11964;SDS011;6042;41.326;19.826;2023-12-04T11:14:50;17.73;;;9.53;;
11964;SDS011;6042;41.326;19.826;2023-12-04T11:17:23;16.70;;;9.20;;
11964;SDS011;6042;41.326;19.826;2023-12-04T11:19:54;16.63;;;8.00;;
11964;SDS011;6042;41.326;19.826;2023-12-04T11:22:25;15.43;;;8.20;;
11964;SDS011;6042;41.326;19.826;2023-12-04T11:24:52;13.93;;;7.57;;
11964;SDS011;6042;41.326;19.826;2023-12-04T11:27:20;20.57;;;8.30;;
11964;SDS011;6042;41.326;19.826;2023-12-04T11:29:51;13.33;;;7.83;;
11964;SDS011;6042;41.326;19.826;2023-12-04T11:32:18;13.53;;;7.03;;
11964;SDS011;6042;41.326;19.826;2023-12-04T11:34:49;13.87;;;7.77;;
11964;SDS011;6042;41.326;19.826;2023-12-04T11:37:19;10.83;;;7.17;;
11964;SDS011;6042;41.326;19.826;2023-12-04T11:39:46;15.07;;;7.23;;
11964;SDS011;6042;41.326;19.826;2023-12-04T11:42:18;15.47;;;6.77;;
11964;SDS011;6042;41.326;19.826;2023-12-04T11:44:47;12.53;;;6.97;;
11964;SDS011;6042;41.326;19.826;2023-12-04T11:47:16;12.23;;;7.33;;
11964;SDS011;6042;41.326;19.826;2023-12-04T11:49:44;15.13;;;5.87;;
11964;SDS011;6042;41.326;19.826;2023-12-04T11:52:12;18.57;;;6.27;;
11964;SDS011;6042;41.326;19.826;2023-12-04T11:54:58;13.90;;;6.90;;
11964;SDS011;6042;41.326;19.826;2023-12-04T11:57:27;15.03;;;5.97;;
11964;SDS011;6042;41.326;19.826;2023-12-04T12:00:11;18.90;;;5.90;;
11964;SDS011;6042;41.326;19.826;2023-12-04T12:02:47;11.20;;;5.47;;
11964;SDS011;6042;41.326;19.826;2023-12-04T12:05:48;12.60;;;5.33;;
11964;SDS011;6042;41.326;19.826;2023-12-04T12:08:16;10.50;;;4.93;;
11964;SDS011;6042;41.326;19.826;2023-12-04T12:10:44;13.87;;;5.17;;
11964;SDS011;6042;41.326;19.826;2023-12-04T12:13:13;12.67;;;5.47;;
11964;SDS011;6042;41.326;19.826;2023-12-04T12:15:40;10.63;;;5.20;;
11964;SDS011;6042;41.326;19.826;2023-12-04T12:18:10;13.30;;;5.83;;
11964;SDS011;6042;41.326;19.826;2023-12-04T12:20:37;10.03;;;4.77;;
11964;SDS011;6042;41.326;19.826;2023-12-04T12:23:05;13.23;;;4.73;;
11964;SDS011;6042;41.326;19.826;2023-12-04T12:25:32;11.20;;;5.00;;
11964;SDS011;6042;41.326;19.826;2023-12-04T12:28:01;10.87;;;4.90;;
11964;SDS011;6042;41.326;19.826;2023-12-04T12:30:29;12.90;;;5.73;;
11964;SDS011;6042;41.326;19.826;2023-12-04T12:32:56;12.23;;;5.03;;
11964;SDS011;6042;41.326;19.826;2023-12-04T12:35:25;7.83;;;4.90;;
11964;SDS011;6042;41.326;19.826;2023-12-04T12:37:53;9.70;;;4.70;;
11964;SDS011;6042;41.326;19.826;2023-12-04T12:40:22;13.23;;;4.77;;
11964;SDS011;6042;41.326;19.826;2023-12-04T12:42:49;11.93;;;4.77;;
11964;SDS011;6042;41.326;19.826;2023-12-04T12:45:17;11.73;;;4.57;;
11964;SDS011;6042;41.326;19.826;2023-12-04T12:47:45;10.53;;;5.03;;
11964;SDS011;6042;41.326;19.826;2023-12-04T12:50:13;8.67;;;4.50;;
11964;SDS011;6042;41.326;19.826;2023-12-04T12:52:43;8.83;;;4.10;;
11964;SDS011;6042;41.326;19.826;2023-12-04T12:55:10;14.37;;;4.77;;
11964;SDS011;6042;41.326;19.826;2023-12-04T12:57:38;8.77;;;4.40;;
11964;SDS011;6042;41.326;19.826;2023-12-04T13:00:06;11.60;;;6.43;;
11964;SDS011;6042;41.326;19.826;2023-12-04T13:02:35;12.47;;;6.03;;
11964;SDS011;6042;41.326;19.826;2023-12-04T13:05:04;10.07;;;5.17;;
11964;SDS011;6042;41.326;19.826;2023-12-04T13:07:33;10.83;;;5.50;;
11964;SDS011;6042;41.326;19.826;2023-12-04T13:10:01;13.57;;;5.67;;
11964;SDS011;6042;41.326;19.826;2023-12-04T13:12:31;14.70;;;5.40;;
11964;SDS011;6042;41.326;19.826;2023-12-04T13:14:59;8.03;;;5.43;;
11964;SDS011;6042;41.326;19.826;2023-12-04T13:17:26;11.50;;;5.30;;
11964;SDS011;6042;41.326;19.826;2023-12-04T13:19:54;11.47;;;5.73;;
11964;SDS011;6042;41.326;19.826;2023-12-04T13:22:21;6.43;;;4.67;;
11964;SDS011;6042;41.326;19.826;2023-12-04T13:24:49;10.70;;;4.70;;
11964;SDS011;6042;41.326;19.826;2023-12-04T13:27:17;8.33;;;5.50;;
11964;SDS011;6042;41.326;19.826;2023-12-04T13:29:45;11.57;;;5.03;;
11964;SDS011;6042;41.326;19.826;2023-12-04T13:32:16;9.80;;;5.07;;
11964;SDS011;6042;41.326;19.826;2023-12-04T13:34:43;10.70;;;4.80;;
11964;SDS011;6042;41.326;19.826;2023-12-04T13:37:10;10.10;;;4.73;;
11964;SDS011;6042;41.326;19.826;2023-12-04T13:39:37;9.47;;;5.00;;
11964;SDS011;6042;41.326;19.826;2023-12-04T13:42:16;8.57;;;5.03;;
11964;SDS011;6042;41.326;19.826;2023-12-04T13:45:02;11.60;;;4.60;;
11964;SDS011;6042;41.326;19.826;2023-12-04T13:47:31;9.87;;;4.50;;
11964;SDS011;6042;41.326;19.826;2023-12-04T13:50:00;14.20;;;5.13;;
11964;SDS011;6042;41.326;19.826;2023-12-04T13:52:28;9.17;;;5.07;;
11964;SDS011;6042;41.326;19.826;2023-12-04T13:54:59;10.33;;;5.13;;
11964;SDS011;6042;41.326;19.826;2023-12-04T13:57:26;11.57;;;5.40;;
11964;SDS011;6042;41.326;19.826;2023-12-04T13:59:59;15.73;;;7.73;;
11964;SDS011;6042;41.326;19.826;2023-12-04T14:02:30;17.93;;;6.17;;
11964;SDS011;6042;41.326;19.826;2023-12-04T14:04:57;11.50;;;5.60;;
11964;SDS011;6042;41.326;19.826;2023-12-04T14:07:25;9.93;;;5.03;;
11964;SDS011;6042;41.326;19.826;2023-12-04T14:09:53;6.70;;;4.63;;
11964;SDS011;6042;41.326;19.826;2023-12-04T14:12:21;10.87;;;4.70;;
11964;SDS011;6042;41.326;19.826;2023-12-04T14:14:48;9.03;;;5.03;;
11964;SDS011;6042;41.326;19.826;2023-12-04T14:17:16;8.00;;;4.53;;
11964;SDS011;6042;41.326;19.826;2023-12-04T14:19:44;11.03;;;5.07;;
11964;SDS011;6042;41.326;19.826;2023-12-04T14:22:12;11.30;;;4.80;;
11964;SDS011;6042;41.326;19.826;2023-12-04T14:24:39;10.53;;;4.73;;
11964;SDS011;6042;41.326;19.826;2023-12-04T14:27:06;7.00;;;4.63;;
11964;SDS011;6042;41.326;19.826;2023-12-04T14:29:33;10.00;;;5.70;;
11964;SDS011;6042;41.326;19.826;2023-12-04T14:32:01;9.87;;;5.07;;
11964;SDS011;6042;41.326;19.826;2023-12-04T14:34:28;10.20;;;5.37;;
11964;SDS011;6042;41.326;19.826;2023-12-04T14:36:56;7.70;;;5.27;;
11964;SDS011;6042;41.326;19.826;2023-12-04T14:39:24;11.50;;;4.77;;
11964;SDS011;6042;41.326;19.826;2023-12-04T14:41:51;7.80;;;4.67;;
11964;SDS011;6042;41.326;19.826;2023-12-04T14:44:19;8.13;;;4.80;;
11964;SDS011;6042;41.326;19.826;2023-12-04T14:46:46;7.57;;;4.80;;
11964;SDS011;6042;41.326;19.826;2023-12-04T14:49:13;14.60;;;6.23;;
11964;SDS011;6042;41.326;19.826;2023-12-04T14:51:41;8.20;;;4.77;;
11964;SDS011;6042;41.326;19.826;2023-12-04T14:54:15;7.93;;;5.00;;
11964;SDS011;6042;41.326;19.826;2023-12-04T14:56:49;13.40;;;5.00;;
11964;SDS011;6042;41.326;19.826;2023-12-04T14:59:31;8.73;;;5.30;;
11964;SDS011;6042;41.326;19.826;2023-12-04T15:02:22;9.10;;;5.40;;
11964;SDS011;6042;41.326;19.826;2023-12-04T15:05:10;6.00;;;4.80;;
11964;SDS011;6042;41.326;19.826;2023-12-04T15:08:18;7.07;;;4.70;;
11964;SDS011;6042;41.326;19.826;2023-12-04T15:11:07;9.37;;;4.80;;